Terminal Aerodrome Forecast
Issued by NWS

Home | Current Version | Previous Version | Text Only | Print | Product List | Glossary On
Versions: 1 2 3 4 5 6 7 8 9 10 11 12 13 14
000
FTUS44 KCRP 050604 AAA
TAFALI
TAF AMD
KALI 050604Z 0506/0606 13012KT P6SM SCT015 BKN100 OVC250
      TEMPO 0506/0510 BKN015 OVC100
     FM051000 14007KT P6SM BKN015
     FM051400 14013G18KT P6SM BKN025 OVC060
     FM051700 13017G26KT P6SM VCSH SCT025 OVC060
     FM060300 13013KT P6SM BKN011 OVC050=

USA.gov is the U.S. government's official web portal to all federal, state and local government web resources and services.